sensor_id;sensor_type;location;lat;lon;timestamp;P1;durP1;ratioP1;P2;durP2;ratioP2
23432;SDS011;41331;45.412;10.992;2023-05-10T00:00:59;8.75;;;3.30;;
23432;SDS011;41331;45.412;10.992;2023-05-10T00:03:26;6.78;;;3.58;;
23432;SDS011;41331;45.412;10.992;2023-05-10T00:05:54;5.68;;;3.58;;
23432;SDS011;41331;45.412;10.992;2023-05-10T00:08:21;10.00;;;4.05;;
23432;SDS011;41331;45.412;10.992;2023-05-10T00:10:49;6.45;;;4.38;;
23432;SDS011;41331;45.412;10.992;2023-05-10T00:13:18;5.60;;;4.22;;
23432;SDS011;41331;45.412;10.992;2023-05-10T00:15:45;6.40;;;3.65;;
23432;SDS011;41331;45.412;10.992;2023-05-10T00:18:13;8.63;;;4.32;;
23432;SDS011;41331;45.412;10.992;2023-05-10T00:20:40;7.63;;;4.55;;
23432;SDS011;41331;45.412;10.992;2023-05-10T00:23:07;6.13;;;3.95;;
23432;SDS011;41331;45.412;10.992;2023-05-10T00:25:35;7.25;;;3.28;;
23432;SDS011;41331;45.412;10.992;2023-05-10T00:28:02;8.57;;;3.13;;
23432;SDS011;41331;45.412;10.992;2023-05-10T00:30:30;4.70;;;2.97;;
23432;SDS011;41331;45.412;10.992;2023-05-10T00:32:58;6.00;;;3.17;;
23432;SDS011;41331;45.412;10.992;2023-05-10T00:35:25;4.65;;;2.70;;
23432;SDS011;41331;45.412;10.992;2023-05-10T00:37:53;4.80;;;3.00;;
23432;SDS011;41331;45.412;10.992;2023-05-10T00:40:21;5.93;;;2.78;;
23432;SDS011;41331;45.412;10.992;2023-05-10T00:42:53;3.72;;;2.38;;
23432;SDS011;41331;45.412;10.992;2023-05-10T00:45:20;4.45;;;2.35;;
23432;SDS011;41331;45.412;10.992;2023-05-10T00:47:48;4.47;;;2.58;;
23432;SDS011;41331;45.412;10.992;2023-05-10T00:50:16;5.55;;;2.03;;
23432;SDS011;41331;45.412;10.992;2023-05-10T00:52:44;4.07;;;2.15;;
23432;SDS011;41331;45.412;10.992;2023-05-10T00:55:12;4.30;;;1.88;;
23432;SDS011;41331;45.412;10.992;2023-05-10T00:57:40;4.78;;;2.13;;
23432;SDS011;41331;45.412;10.992;2023-05-10T01:00:08;5.68;;;2.10;;
23432;SDS011;41331;45.412;10.992;2023-05-10T01:02:36;4.68;;;2.15;;
23432;SDS011;41331;45.412;10.992;2023-05-10T01:05:04;4.13;;;2.08;;
23432;SDS011;41331;45.412;10.992;2023-05-10T01:07:32;5.15;;;2.20;;
23432;SDS011;41331;45.412;10.992;2023-05-10T01:09:59;5.60;;;2.05;;
23432;SDS011;41331;45.412;10.992;2023-05-10T01:12:29;4.25;;;2.10;;
23432;SDS011;41331;45.412;10.992;2023-05-10T01:14:57;3.75;;;1.90;;
23432;SDS011;41331;45.412;10.992;2023-05-10T01:17:24;4.22;;;2.22;;
23432;SDS011;41331;45.412;10.992;2023-05-10T01:19:52;3.40;;;1.85;;
23432;SDS011;41331;45.412;10.992;2023-05-10T01:33:39;4.45;;;1.58;;
23432;SDS011;41331;45.412;10.992;2023-05-10T01:36:20;3.00;;;1.50;;
23432;SDS011;41331;45.412;10.992;2023-05-10T01:38:58;6.53;;;1.80;;
23432;SDS011;41331;45.412;10.992;2023-05-10T01:41:49;4.40;;;1.63;;
23432;SDS011;41331;45.412;10.992;2023-05-10T01:44:26;3.85;;;1.48;;
23432;SDS011;41331;45.412;10.992;2023-05-10T01:47:01;3.53;;;1.55;;
23432;SDS011;41331;45.412;10.992;2023-05-10T01:49:35;4.38;;;1.55;;
23432;SDS011;41331;45.412;10.992;2023-05-10T01:52:11;3.40;;;1.70;;
23432;SDS011;41331;45.412;10.992;2023-05-10T01:54:44;3.00;;;1.45;;
23432;SDS011;41331;45.412;10.992;2023-05-10T01:57:18;3.28;;;1.30;;
23432;SDS011;41331;45.412;10.992;2023-05-10T01:59:48;7.30;;;1.73;;
23432;SDS011;41331;45.412;10.992;2023-05-10T02:02:18;4.47;;;1.77;;
23432;SDS011;41331;45.412;10.992;2023-05-10T02:04:49;2.78;;;1.40;;
23432;SDS011;41331;45.412;10.992;2023-05-10T02:07:17;3.13;;;1.67;;
23432;SDS011;41331;45.412;10.992;2023-05-10T02:09:46;4.38;;;1.70;;
23432;SDS011;41331;45.412;10.992;2023-05-10T02:12:15;4.15;;;1.77;;
23432;SDS011;41331;45.412;10.992;2023-05-10T02:14:44;6.10;;;1.73;;
23432;SDS011;41331;45.412;10.992;2023-05-10T02:17:12;2.90;;;1.70;;
23432;SDS011;41331;45.412;10.992;2023-05-10T02:19:43;3.42;;;1.90;;
23432;SDS011;41331;45.412;10.992;2023-05-10T02:22:13;3.60;;;1.63;;
23432;SDS011;41331;45.412;10.992;2023-05-10T02:24:42;3.95;;;1.63;;
23432;SDS011;41331;45.412;10.992;2023-05-10T02:27:11;3.60;;;1.65;;
23432;SDS011;41331;45.412;10.992;2023-05-10T02:29:41;6.10;;;1.77;;
23432;SDS011;41331;45.412;10.992;2023-05-10T02:32:10;4.07;;;2.00;;
23432;SDS011;41331;45.412;10.992;2023-05-10T02:34:39;3.53;;;1.70;;
23432;SDS011;41331;45.412;10.992;2023-05-10T02:37:07;4.88;;;2.00;;
23432;SDS011;41331;45.412;10.992;2023-05-10T02:39:36;2.63;;;1.70;;
23432;SDS011;41331;45.412;10.992;2023-05-10T02:42:07;4.73;;;1.97;;
23432;SDS011;41331;45.412;10.992;2023-05-10T02:44:35;2.90;;;1.80;;
23432;SDS011;41331;45.412;10.992;2023-05-10T02:47:03;10.07;;;2.53;;
23432;SDS011;41331;45.412;10.992;2023-05-10T02:49:31;3.15;;;1.67;;
23432;SDS011;41331;45.412;10.992;2023-05-10T02:52:00;4.05;;;1.95;;
23432;SDS011;41331;45.412;10.992;2023-05-10T02:54:32;6.40;;;2.17;;
23432;SDS011;41331;45.412;10.992;2023-05-10T02:59:31;6.28;;;2.00;;
23432;SDS011;41331;45.412;10.992;2023-05-10T03:01:59;3.47;;;1.88;;
23432;SDS011;41331;45.412;10.992;2023-05-10T03:04:27;3.17;;;2.00;;
23432;SDS011;41331;45.412;10.992;2023-05-10T03:06:56;3.60;;;1.88;;
23432;SDS011;41331;45.412;10.992;2023-05-10T03:09:25;3.85;;;2.08;;
23432;SDS011;41331;45.412;10.992;2023-05-10T03:12:13;5.25;;;2.03;;
23432;SDS011;41331;45.412;10.992;2023-05-10T03:20:10;4.10;;;2.30;;
23432;SDS011;41331;45.412;10.992;2023-05-10T03:22:41;5.93;;;2.42;;
23432;SDS011;41331;45.412;10.992;2023-05-10T03:25:14;3.85;;;2.10;;
23432;SDS011;41331;45.412;10.992;2023-05-10T03:27:43;4.55;;;2.28;;
23432;SDS011;41331;45.412;10.992;2023-05-10T03:30:12;3.65;;;2.00;;
23432;SDS011;41331;45.412;10.992;2023-05-10T03:32:41;6.05;;;2.70;;
23432;SDS011;41331;45.412;10.992;2023-05-10T03:35:09;3.83;;;2.03;;
23432;SDS011;41331;45.412;10.992;2023-05-10T03:37:37;4.28;;;2.35;;
23432;SDS011;41331;45.412;10.992;2023-05-10T03:40:05;4.32;;;2.40;;
23432;SDS011;41331;45.412;10.992;2023-05-10T03:42:35;4.20;;;1.92;;
23432;SDS011;41331;45.412;10.992;2023-05-10T03:45:03;5.03;;;2.38;;
23432;SDS011;41331;45.412;10.992;2023-05-10T03:47:30;3.80;;;2.35;;
23432;SDS011;41331;45.412;10.992;2023-05-10T03:49:59;4.60;;;2.00;;
23432;SDS011;41331;45.412;10.992;2023-05-10T03:52:30;4.13;;;2.17;;
23432;SDS011;41331;45.412;10.992;2023-05-10T03:54:58;3.65;;;2.25;;
23432;SDS011;41331;45.412;10.992;2023-05-10T03:57:26;4.53;;;2.33;;
23432;SDS011;41331;45.412;10.992;2023-05-10T03:59:53;3.97;;;2.03;;
23432;SDS011;41331;45.412;10.992;2023-05-10T04:02:23;3.88;;;2.10;;
23432;SDS011;41331;45.412;10.992;2023-05-10T04:04:51;4.63;;;1.98;;
23432;SDS011;41331;45.412;10.992;2023-05-10T04:07:19;5.10;;;2.63;;
23432;SDS011;41331;45.412;10.992;2023-05-10T04:09:47;4.68;;;2.20;;
23432;SDS011;41331;45.412;10.992;2023-05-10T04:12:14;8.18;;;2.28;;
23432;SDS011;41331;45.412;10.992;2023-05-10T04:14:41;6.30;;;1.95;;
23432;SDS011;41331;45.412;10.992;2023-05-10T04:17:09;5.68;;;2.20;;
23432;SDS011;41331;45.412;10.992;2023-05-10T04:19:37;4.97;;;2.15;;
23432;SDS011;41331;45.412;10.992;2023-05-10T04:22:05;7.70;;;2.20;;
23432;SDS011;41331;45.412;10.992;2023-05-10T04:24:32;4.35;;;1.95;;
23432;SDS011;41331;45.412;10.992;2023-05-10T04:27:00;3.58;;;2.20;;
23432;SDS011;41331;45.412;10.992;2023-05-10T04:29:27;4.38;;;2.20;;
23432;SDS011;41331;45.412;10.992;2023-05-10T04:31:54;4.43;;;2.20;;
23432;SDS011;41331;45.412;10.992;2023-05-10T04:34:23;6.68;;;1.85;;
23432;SDS011;41331;45.412;10.992;2023-05-10T04:36:50;4.10;;;1.98;;
23432;SDS011;41331;45.412;10.992;2023-05-10T04:39:18;5.60;;;2.20;;
23432;SDS011;41331;45.412;10.992;2023-05-10T04:41:46;3.30;;;1.75;;
23432;SDS011;41331;45.412;10.992;2023-05-10T04:44:13;4.85;;;2.03;;
23432;SDS011;41331;45.412;10.992;2023-05-10T04:46:40;4.00;;;2.30;;
23432;SDS011;41331;45.412;10.992;2023-05-10T04:49:08;5.10;;;2.10;;
23432;SDS011;41331;45.412;10.992;2023-05-10T04:51:35;5.70;;;1.90;;
23432;SDS011;41331;45.412;10.992;2023-05-10T04:54:04;3.95;;;2.10;;
23432;SDS011;41331;45.412;10.992;2023-05-10T04:56:33;4.65;;;2.10;;
23432;SDS011;41331;45.412;10.992;2023-05-10T04:59:00;4.25;;;1.90;;
23432;SDS011;41331;45.412;10.992;2023-05-10T05:01:28;4.72;;;2.03;;
23432;SDS011;41331;45.412;10.992;2023-05-10T05:03:55;7.22;;;2.33;;
23432;SDS011;41331;45.412;10.992;2023-05-10T05:06:23;4.00;;;2.05;;
23432;SDS011;41331;45.412;10.992;2023-05-10T05:08:52;5.20;;;1.98;;
23432;SDS011;41331;45.412;10.992;2023-05-10T05:11:19;7.80;;;2.42;;
23432;SDS011;41331;45.412;10.992;2023-05-10T05:13:48;4.15;;;2.40;;
23432;SDS011;41331;45.412;10.992;2023-05-10T05:16:15;3.55;;;2.08;;
23432;SDS011;41331;45.412;10.992;2023-05-10T05:18:42;4.05;;;2.30;;
23432;SDS011;41331;45.412;10.992;2023-05-10T05:21:16;4.53;;;2.28;;
23432;SDS011;41331;45.412;10.992;2023-05-10T05:23:44;4.25;;;2.35;;
23432;SDS011;41331;45.412;10.992;2023-05-10T05:26:12;3.30;;;2.00;;
23432;SDS011;41331;45.412;10.992;2023-05-10T05:28:39;5.03;;;2.08;;
23432;SDS011;41331;45.412;10.992;2023-05-10T05:31:07;3.47;;;1.90;;
23432;SDS011;41331;45.412;10.992;2023-05-10T05:33:37;4.47;;;2.10;;
23432;SDS011;41331;45.412;10.992;2023-05-10T05:36:07;4.47;;;2.20;;
23432;SDS011;41331;45.412;10.992;2023-05-10T05:38:34;3.88;;;2.10;;
23432;SDS011;41331;45.412;10.992;2023-05-10T05:41:02;5.78;;;3.30;;
23432;SDS011;41331;45.412;10.992;2023-05-10T05:43:30;3.42;;;1.95;;
23432;SDS011;41331;45.412;10.992;2023-05-10T05:45:57;5.45;;;1.60;;
23432;SDS011;41331;45.412;10.992;2023-05-10T05:48:25;3.25;;;1.83;;
23432;SDS011;41331;45.412;10.992;2023-05-10T05:50:56;5.30;;;2.22;;
23432;SDS011;41331;45.412;10.992;2023-05-10T05:53:25;4.78;;;2.05;;
23432;SDS011;41331;45.412;10.992;2023-05-10T05:55:54;3.58;;;2.10;;
23432;SDS011;41331;45.412;10.992;2023-05-10T05:58:22;4.40;;;2.03;;
23432;SDS011;41331;45.412;10.992;2023-05-10T06:00:50;4.80;;;1.90;;
23432;SDS011;41331;45.412;10.992;2023-05-10T06:03:22;3.33;;;1.70;;
23432;SDS011;41331;45.412;10.992;2023-05-10T06:05:49;5.78;;;2.33;;
23432;SDS011;41331;45.412;10.992;2023-05-10T06:08:17;3.17;;;1.85;;
23432;SDS011;41331;45.412;10.992;2023-05-10T06:10:44;3.50;;;1.60;;
23432;SDS011;41331;45.412;10.992;2023-05-10T06:13:12;4.40;;;1.90;;
23432;SDS011;41331;45.412;10.992;2023-05-10T06:15:39;3.05;;;1.55;;
23432;SDS011;41331;45.412;10.992;2023-05-10T06:18:07;3.33;;;1.80;;
23432;SDS011;41331;45.412;10.992;2023-05-10T06:20:35;2.60;;;1.60;;
23432;SDS011;41331;45.412;10.992;2023-05-10T06:23:02;4.70;;;1.90;;
23432;SDS011;41331;45.412;10.992;2023-05-10T06:25:30;5.95;;;1.77;;
23432;SDS011;41331;45.412;10.992;2023-05-10T06:27:57;3.75;;;1.67;;
23432;SDS011;41331;45.412;10.992;2023-05-10T06:30:25;3.75;;;1.50;;
23432;SDS011;41331;45.412;10.992;2023-05-10T06:32:56;8.40;;;1.40;;
23432;SDS011;41331;45.412;10.992;2023-05-10T06:35:24;5.53;;;1.77;;
23432;SDS011;41331;45.412;10.992;2023-05-10T06:37:52;4.85;;;1.70;;
23432;SDS011;41331;45.412;10.992;2023-05-10T06:40:19;3.10;;;1.70;;
23432;SDS011;41331;45.412;10.992;2023-05-10T06:42:47;3.08;;;1.58;;
23432;SDS011;41331;45.412;10.992;2023-05-10T06:45:15;2.60;;;1.33;;
23432;SDS011;41331;45.412;10.992;2023-05-10T06:47:43;3.65;;;1.70;;
23432;SDS011;41331;45.412;10.992;2023-05-10T06:50:12;3.63;;;1.88;;
23432;SDS011;41331;45.412;10.992;2023-05-10T06:52:39;4.60;;;2.13;;
23432;SDS011;41331;45.412;10.992;2023-05-10T06:55:07;3.75;;;2.10;;
23432;SDS011;41331;45.412;10.992;2023-05-10T06:57:35;5.43;;;1.80;;
23432;SDS011;41331;45.412;10.992;2023-05-10T07:00:03;5.15;;;1.75;;
23432;SDS011;41331;45.412;10.992;2023-05-10T07:02:32;3.67;;;1.67;;
23432;SDS011;41331;45.412;10.992;2023-05-10T07:04:59;3.40;;;1.80;;
23432;SDS011;41331;45.412;10.992;2023-05-10T07:07:32;5.10;;;1.88;;
23432;SDS011;41331;45.412;10.992;2023-05-10T07:10:01;3.78;;;1.73;;
23432;SDS011;41331;45.412;10.992;2023-05-10T07:12:28;5.70;;;1.80;;
23432;SDS011;41331;45.412;10.992;2023-05-10T07:14:56;4.53;;;1.95;;
23432;SDS011;41331;45.412;10.992;2023-05-10T07:17:23;3.55;;;1.80;;
23432;SDS011;41331;45.412;10.992;2023-05-10T07:19:51;2.80;;;1.70;;
23432;SDS011;41331;45.412;10.992;2023-05-10T07:22:18;4.25;;;1.90;;
23432;SDS011;41331;45.412;10.992;2023-05-10T07:24:46;3.72;;;1.90;;
23432;SDS011;41331;45.412;10.992;2023-05-10T07:27:13;4.88;;;1.77;;
23432;SDS011;41331;45.412;10.992;2023-05-10T07:29:41;3.40;;;1.88;;
23432;SDS011;41331;45.412;10.992;2023-05-10T07:32:08;2.72;;;1.73;;
23432;SDS011;41331;45.412;10.992;2023-05-10T07:34:35;3.58;;;1.92;;
23432;SDS011;41331;45.412;10.992;2023-05-10T07:37:03;5.88;;;1.85;;
23432;SDS011;41331;45.412;10.992;2023-05-10T07:39:30;3.78;;;2.00;;
23432;SDS011;41331;45.412;10.992;2023-05-10T07:41:58;5.30;;;2.28;;
23432;SDS011;41331;45.412;10.992;2023-05-10T07:44:25;5.72;;;2.20;;
23432;SDS011;41331;45.412;10.992;2023-05-10T07:46:55;4.75;;;2.20;;
23432;SDS011;41331;45.412;10.992;2023-05-10T07:49:22;3.05;;;1.88;;
23432;SDS011;41331;45.412;10.992;2023-05-10T07:51:53;3.33;;;2.00;;
23432;SDS011;41331;45.412;10.992;2023-05-10T07:54:20;4.78;;;2.25;;
23432;SDS011;41331;45.412;10.992;2023-05-10T07:56:48;3.25;;;1.92;;
23432;SDS011;41331;45.412;10.992;2023-05-10T07:59:16;3.53;;;2.20;;
23432;SDS011;41331;45.412;10.992;2023-05-10T08:01:44;3.50;;;1.90;;
23432;SDS011;41331;45.412;10.992;2023-05-10T08:04:12;3.90;;;1.90;;
23432;SDS011;41331;45.412;10.992;2023-05-10T08:06:39;6.00;;;2.05;;
23432;SDS011;41331;45.412;10.992;2023-05-10T08:09:08;5.32;;;1.90;;
23432;SDS011;41331;45.412;10.992;2023-05-10T08:11:38;4.07;;;2.30;;
23432;SDS011;41331;45.412;10.992;2023-05-10T08:14:06;4.63;;;2.08;;
23432;SDS011;41331;45.412;10.992;2023-05-10T08:16:33;2.75;;;1.75;;
23432;SDS011;41331;45.412;10.992;2023-05-10T08:19:01;3.10;;;1.67;;
23432;SDS011;41331;45.412;10.992;2023-05-10T08:21:29;6.97;;;2.30;;
23432;SDS011;41331;45.412;10.992;2023-05-10T08:23:56;3.63;;;2.15;;
23432;SDS011;41331;45.412;10.992;2023-05-10T08:26:24;3.97;;;2.20;;
23432;SDS011;41331;45.412;10.992;2023-05-10T08:28:52;8.52;;;2.28;;
23432;SDS011;41331;45.412;10.992;2023-05-10T08:31:20;3.67;;;1.90;;
23432;SDS011;41331;45.412;10.992;2023-05-10T08:33:47;4.15;;;2.00;;
23432;SDS011;41331;45.412;10.992;2023-05-10T08:36:15;8.52;;;2.08;;
23432;SDS011;41331;45.412;10.992;2023-05-10T08:38:49;4.20;;;2.10;;
23432;SDS011;41331;45.412;10.992;2023-05-10T08:41:21;6.78;;;2.30;;
23432;SDS011;41331;45.412;10.992;2023-05-10T08:43:51;4.75;;;2.28;;
23432;SDS011;41331;45.412;10.992;2023-05-10T08:46:19;3.72;;;1.92;;
23432;SDS011;41331;45.412;10.992;2023-05-10T08:48:49;4.75;;;1.90;;
23432;SDS011;41331;45.412;10.992;2023-05-10T08:51:19;4.10;;;2.10;;
23432;SDS011;41331;45.412;10.992;2023-05-10T08:53:50;3.38;;;1.85;;
23432;SDS011;41331;45.412;10.992;2023-05-10T08:56:18;4.05;;;1.85;;
23432;SDS011;41331;45.412;10.992;2023-05-10T08:58:47;3.70;;;2.28;;
23432;SDS011;41331;45.412;10.992;2023-05-10T09:01:16;3.25;;;1.98;;
23432;SDS011;41331;45.412;10.992;2023-05-10T09:03:46;4.90;;;2.05;;
23432;SDS011;41331;45.412;10.992;2023-05-10T09:06:16;4.95;;;2.08;;
23432;SDS011;41331;45.412;10.992;2023-05-10T09:08:44;4.90;;;2.63;;
23432;SDS011;41331;45.412;10.992;2023-05-10T09:11:11;4.25;;;2.28;;
23432;SDS011;41331;45.412;10.992;2023-05-10T09:13:39;8.60;;;2.95;;
23432;SDS011;41331;45.412;10.992;2023-05-10T09:16:07;3.20;;;1.90;;
23432;SDS011;41331;45.412;10.992;2023-05-10T09:18:48;3.25;;;1.73;;
23432;SDS011;41331;45.412;10.992;2023-05-10T09:21:16;6.55;;;2.08;;
23432;SDS011;41331;45.412;10.992;2023-05-10T09:23:44;5.38;;;2.00;;
23432;SDS011;41331;45.412;10.992;2023-05-10T09:26:14;5.18;;;1.88;;
23432;SDS011;41331;45.412;10.992;2023-05-10T09:28:50;5.63;;;2.17;;
23432;SDS011;41331;45.412;10.992;2023-05-10T09:31:19;3.70;;;2.28;;
23432;SDS011;41331;45.412;10.992;2023-05-10T09:33:48;4.32;;;2.40;;
23432;SDS011;41331;45.412;10.992;2023-05-10T09:36:16;4.38;;;2.13;;
23432;SDS011;41331;45.412;10.992;2023-05-10T09:38:50;6.10;;;2.08;;
23432;SDS011;41331;45.412;10.992;2023-05-10T09:41:21;4.05;;;2.15;;
23432;SDS011;41331;45.412;10.992;2023-05-10T09:43:49;6.18;;;1.75;;
23432;SDS011;41331;45.412;10.992;2023-05-10T09:46:18;3.78;;;2.25;;
23432;SDS011;41331;45.412;10.992;2023-05-10T09:48:46;4.03;;;1.92;;
23432;SDS011;41331;45.412;10.992;2023-05-10T09:51:21;4.63;;;2.45;;
23432;SDS011;41331;45.412;10.992;2023-05-10T09:56:41;5.90;;;2.45;;
23432;SDS011;41331;45.412;10.992;2023-05-10T09:59:10;4.03;;;2.40;;
23432;SDS011;41331;45.412;10.992;2023-05-10T10:01:38;5.65;;;2.42;;
23432;SDS011;41331;45.412;10.992;2023-05-10T10:04:06;4.32;;;1.92;;
23432;SDS011;41331;45.412;10.992;2023-05-10T10:06:37;7.07;;;1.98;;
23432;SDS011;41331;45.412;10.992;2023-05-10T10:09:05;3.97;;;1.70;;
23432;SDS011;41331;45.412;10.992;2023-05-10T10:11:37;3.97;;;1.80;;
23432;SDS011;41331;45.412;10.992;2023-05-10T10:14:05;8.02;;;2.03;;
23432;SDS011;41331;45.412;10.992;2023-05-10T10:16:33;4.47;;;2.03;;
23432;SDS011;41331;45.412;10.992;2023-05-10T10:19:01;11.95;;;3.08;;
23432;SDS011;41331;45.412;10.992;2023-05-10T10:21:29;5.35;;;1.90;;
23432;SDS011;41331;45.412;10.992;2023-05-10T10:23:56;3.67;;;2.00;;
23432;SDS011;41331;45.412;10.992;2023-05-10T10:26:23;3.75;;;1.80;;
23432;SDS011;41331;45.412;10.992;2023-05-10T10:31:34;3.92;;;2.15;;
23432;SDS011;41331;45.412;10.992;2023-05-10T10:34:06;3.67;;;1.83;;
23432;SDS011;41331;45.412;10.992;2023-05-10T10:36:47;4.88;;;1.95;;
23432;SDS011;41331;45.412;10.992;2023-05-10T10:39:14;4.22;;;2.20;;
23432;SDS011;41331;45.412;10.992;2023-05-10T10:47:08;4.88;;;2.00;;
23432;SDS011;41331;45.412;10.992;2023-05-10T10:55:00;4.40;;;1.90;;
23432;SDS011;41331;45.412;10.992;2023-05-10T10:57:32;3.60;;;1.70;;
23432;SDS011;41331;45.412;10.992;2023-05-10T11:00:29;3.25;;;1.60;;
23432;SDS011;41331;45.412;10.992;2023-05-10T11:10:48;4.63;;;1.85;;
23432;SDS011;41331;45.412;10.992;2023-05-10T11:16:11;6.70;;;2.00;;
23432;SDS011;41331;45.412;10.992;2023-05-10T11:18:52;4.45;;;1.80;;
23432;SDS011;41331;45.412;10.992;2023-05-10T11:21:21;3.67;;;1.77;;
23432;SDS011;41331;45.412;10.992;2023-05-10T11:26:18;5.30;;;1.50;;
23432;SDS011;41331;45.412;10.992;2023-05-10T11:28:48;3.08;;;1.65;;
23432;SDS011;41331;45.412;10.992;2023-05-10T11:31:19;4.43;;;2.17;;
23432;SDS011;41331;45.412;10.992;2023-05-10T11:36:19;2.95;;;1.65;;
23432;SDS011;41331;45.412;10.992;2023-05-10T11:41:17;2.67;;;1.60;;
23432;SDS011;41331;45.412;10.992;2023-05-10T11:43:46;5.28;;;2.00;;
23432;SDS011;41331;45.412;10.992;2023-05-10T11:46:14;8.63;;;1.83;;
23432;SDS011;41331;45.412;10.992;2023-05-10T11:48:45;4.95;;;1.90;;
23432;SDS011;41331;45.412;10.992;2023-05-10T11:51:12;3.60;;;1.80;;
23432;SDS011;41331;45.412;10.992;2023-05-10T11:53:40;3.67;;;1.77;;
23432;SDS011;41331;45.412;10.992;2023-05-10T11:56:08;4.05;;;1.90;;
23432;SDS011;41331;45.412;10.992;2023-05-10T11:58:37;4.90;;;1.95;;
23432;SDS011;41331;45.412;10.992;2023-05-10T12:01:06;5.03;;;2.03;;
23432;SDS011;41331;45.412;10.992;2023-05-10T12:03:34;6.30;;;1.88;;
23432;SDS011;41331;45.412;10.992;2023-05-10T12:06:03;3.75;;;2.03;;
23432;SDS011;41331;45.412;10.992;2023-05-10T12:08:30;4.05;;;1.90;;
23432;SDS011;41331;45.412;10.992;2023-05-10T12:11:05;3.20;;;1.92;;
23432;SDS011;41331;45.412;10.992;2023-05-10T12:13:40;3.05;;;1.80;;
23432;SDS011;41331;45.412;10.992;2023-05-10T12:16:17;6.07;;;1.80;;
23432;SDS011;41331;45.412;10.992;2023-05-10T12:18:57;7.68;;;1.80;;
23432;SDS011;41331;45.412;10.992;2023-05-10T12:21:26;3.90;;;1.77;;
23432;SDS011;41331;45.412;10.992;2023-05-10T12:23:58;5.53;;;1.63;;
23432;SDS011;41331;45.412;10.992;2023-05-10T12:26:30;6.88;;;1.80;;
23432;SDS011;41331;45.412;10.992;2023-05-10T12:29:14;2.85;;;1.63;;
23432;SDS011;41331;45.412;10.992;2023-05-10T12:31:49;3.95;;;1.80;;
23432;SDS011;41331;45.412;10.992;2023-05-10T12:34:29;4.60;;;1.63;;
23432;SDS011;41331;45.412;10.992;2023-05-10T12:36:58;5.85;;;1.95;;
23432;SDS011;41331;45.412;10.992;2023-05-10T12:39:37;3.60;;;2.00;;
23432;SDS011;41331;45.412;10.992;2023-05-10T12:42:06;3.17;;;1.67;;
23432;SDS011;41331;45.412;10.992;2023-05-10T12:44:33;4.45;;;2.20;;
23432;SDS011;41331;45.412;10.992;2023-05-10T12:47:01;7.00;;;2.42;;
23432;SDS011;41331;45.412;10.992;2023-05-10T12:49:28;6.53;;;2.45;;
23432;SDS011;41331;45.412;10.992;2023-05-10T12:51:56;5.25;;;2.20;;
23432;SDS011;41331;45.412;10.992;2023-05-10T12:54:23;7.65;;;2.25;;
23432;SDS011;41331;45.412;10.992;2023-05-10T12:56:51;5.43;;;2.10;;
23432;SDS011;41331;45.412;10.992;2023-05-10T12:59:18;7.32;;;2.58;;
23432;SDS011;41331;45.412;10.992;2023-05-10T13:01:46;3.22;;;2.05;;
23432;SDS011;41331;45.412;10.992;2023-05-10T13:04:13;3.42;;;1.90;;
23432;SDS011;41331;45.412;10.992;2023-05-10T13:06:41;6.47;;;2.30;;
23432;SDS011;41331;45.412;10.992;2023-05-10T13:09:08;4.45;;;2.28;;
23432;SDS011;41331;45.412;10.992;2023-05-10T13:11:35;5.10;;;2.10;;
23432;SDS011;41331;45.412;10.992;2023-05-10T13:14:03;4.57;;;1.77;;
23432;SDS011;41331;45.412;10.992;2023-05-10T13:16:31;4.70;;;2.20;;
23432;SDS011;41331;45.412;10.992;2023-05-10T13:18:58;5.78;;;1.98;;
23432;SDS011;41331;45.412;10.992;2023-05-10T13:21:28;7.03;;;2.15;;
23432;SDS011;41331;45.412;10.992;2023-05-10T13:23:55;3.78;;;2.05;;
23432;SDS011;41331;45.412;10.992;2023-05-10T13:26:23;4.22;;;2.20;;
23432;SDS011;41331;45.412;10.992;2023-05-10T13:28:50;3.47;;;2.00;;
23432;SDS011;41331;45.412;10.992;2023-05-10T13:31:18;4.65;;;2.25;;
23432;SDS011;41331;45.412;10.992;2023-05-10T13:33:46;4.47;;;2.30;;
23432;SDS011;41331;45.412;10.992;2023-05-10T13:36:15;5.07;;;2.28;;
23432;SDS011;41331;45.412;10.992;2023-05-10T13:38:43;3.58;;;1.90;;
23432;SDS011;41331;45.412;10.992;2023-05-10T13:41:10;3.40;;;2.00;;
23432;SDS011;41331;45.412;10.992;2023-05-10T13:43:37;4.22;;;2.30;;
23432;SDS011;41331;45.412;10.992;2023-05-10T13:46:05;5.93;;;2.28;;
23432;SDS011;41331;45.412;10.992;2023-05-10T13:48:32;7.63;;;2.67;;
23432;SDS011;41331;45.412;10.992;2023-05-10T13:51:01;3.67;;;2.13;;
23432;SDS011;41331;45.412;10.992;2023-05-10T13:53:28;3.83;;;2.10;;
23432;SDS011;41331;45.412;10.992;2023-05-10T13:55:56;4.32;;;2.17;;
23432;SDS011;41331;45.412;10.992;2023-05-10T13:58:24;3.75;;;2.00;;
23432;SDS011;41331;45.412;10.992;2023-05-10T14:00:51;5.03;;;2.03;;
23432;SDS011;41331;45.412;10.992;2023-05-10T14:03:18;3.33;;;1.80;;
23432;SDS011;41331;45.412;10.992;2023-05-10T14:05:46;4.72;;;2.20;;
23432;SDS011;41331;45.412;10.992;2023-05-10T14:08:14;5.50;;;2.30;;
23432;SDS011;41331;45.412;10.992;2023-05-10T14:10:43;4.65;;;2.00;;
23432;SDS011;41331;45.412;10.992;2023-05-10T14:13:11;2.80;;;1.90;;
23432;SDS011;41331;45.412;10.992;2023-05-10T14:15:39;4.57;;;2.13;;
23432;SDS011;41331;45.412;10.992;2023-05-10T14:18:06;6.45;;;2.28;;
23432;SDS011;41331;45.412;10.992;2023-05-10T14:20:33;3.25;;;1.90;;
23432;SDS011;41331;45.412;10.992;2023-05-10T14:23:01;5.25;;;1.90;;
23432;SDS011;41331;45.412;10.992;2023-05-10T14:25:28;3.67;;;1.83;;
23432;SDS011;41331;45.412;10.992;2023-05-10T14:27:56;3.13;;;1.70;;
23432;SDS011;41331;45.412;10.992;2023-05-10T14:30:23;3.47;;;1.77;;
23432;SDS011;41331;45.412;10.992;2023-05-10T14:32:51;3.40;;;1.83;;
23432;SDS011;41331;45.412;10.992;2023-05-10T14:35:20;3.47;;;2.05;;
23432;SDS011;41331;45.412;10.992;2023-05-10T14:37:48;4.07;;;1.85;;
23432;SDS011;41331;45.412;10.992;2023-05-10T14:40:16;3.35;;;1.70;;
23432;SDS011;41331;45.412;10.992;2023-05-10T14:42:47;4.47;;;2.20;;
23432;SDS011;41331;45.412;10.992;2023-05-10T14:45:15;5.25;;;1.83;;
23432;SDS011;41331;45.412;10.992;2023-05-10T14:47:43;3.47;;;1.77;;
23432;SDS011;41331;45.412;10.992;2023-05-10T14:50:10;4.53;;;1.77;;
23432;SDS011;41331;45.412;10.992;2023-05-10T14:52:50;3.20;;;1.98;;
23432;SDS011;41331;45.412;10.992;2023-05-10T14:55:18;4.25;;;2.20;;
23432;SDS011;41331;45.412;10.992;2023-05-10T14:57:45;3.65;;;2.05;;
23432;SDS011;41331;45.412;10.992;2023-05-10T15:00:14;6.15;;;2.30;;
23432;SDS011;41331;45.412;10.992;2023-05-10T15:02:43;3.85;;;2.33;;
23432;SDS011;41331;45.412;10.992;2023-05-10T15:05:11;5.35;;;2.47;;
23432;SDS011;41331;45.412;10.992;2023-05-10T15:07:39;3.97;;;2.10;;
23432;SDS011;41331;45.412;10.992;2023-05-10T15:10:06;3.53;;;2.20;;
23432;SDS011;41331;45.412;10.992;2023-05-10T15:12:34;3.00;;;1.85;;
23432;SDS011;41331;45.412;10.992;2023-05-10T15:15:01;3.10;;;2.05;;
23432;SDS011;41331;45.412;10.992;2023-05-10T15:17:29;6.30;;;1.80;;
23432;SDS011;41331;45.412;10.992;2023-05-10T15:19:57;2.85;;;1.95;;
23432;SDS011;41331;45.412;10.992;2023-05-10T15:22:24;3.70;;;2.10;;
23432;SDS011;41331;45.412;10.992;2023-05-10T15:24:52;4.05;;;2.08;;
23432;SDS011;41331;45.412;10.992;2023-05-10T15:27:19;4.05;;;2.03;;
23432;SDS011;41331;45.412;10.992;2023-05-10T15:29:47;4.15;;;2.45;;
23432;SDS011;41331;45.412;10.992;2023-05-10T15:32:14;5.70;;;2.30;;
23432;SDS011;41331;45.412;10.992;2023-05-10T15:34:41;4.50;;;2.05;;
23432;SDS011;41331;45.412;10.992;2023-05-10T15:37:09;4.38;;;2.30;;